createdAt,value
2022-11-05T09:00:31.360Z,12.12
2022-11-05T09:02:34.232Z,12.42
2022-11-05T09:04:36.967Z,12.68
2022-11-05T09:06:39.674Z,12.87
2022-11-05T09:08:42.374Z,13.04
2022-11-05T09:10:46.075Z,13.17
2022-11-05T09:12:48.722Z,13.26
2022-11-05T09:14:51.413Z,13.33
2022-11-05T09:16:55.582Z,13.39
2022-11-05T09:18:58.225Z,13.47
2022-11-05T09:21:00.958Z,13.50
2022-11-05T09:23:03.681Z,13.56
2022-11-05T09:25:07.653Z,13.60
2022-11-05T09:27:11.795Z,13.63
2022-11-05T09:29:14.631Z,13.66
2022-11-05T09:31:17.563Z,13.70
2022-11-05T09:33:24.972Z,13.74
2022-11-05T09:35:27.689Z,13.76
2022-11-05T09:37:30.733Z,13.80
2022-11-05T09:39:33.437Z,13.81
2022-11-05T09:41:39.873Z,13.84
2022-11-05T09:43:46.545Z,13.84
2022-11-05T09:45:52.761Z,13.85
2022-11-05T09:48:00.395Z,13.88
2022-11-05T09:50:09.059Z,13.90
2022-11-05T09:52:15.822Z,13.92
2022-11-05T09:54:18.771Z,13.95
2022-11-05T09:56:25.068Z,13.97
2022-11-05T09:58:37.263Z,13.99
2022-11-05T10:00:41.314Z,14.01
2022-11-05T10:02:49.679Z,14.04
2022-11-05T10:04:55.797Z,14.04
2022-11-05T10:07:01.834Z,14.07
2022-11-05T10:09:10.067Z,14.04
2022-11-05T10:11:18.094Z,14.03
2022-11-05T10:13:26.500Z,14.03
2022-11-05T10:15:34.728Z,14.03
2022-11-05T10:17:41.151Z,14.03
2022-11-05T10:19:48.388Z,14.04
2022-11-05T10:22:06.104Z,14.06
2022-11-05T10:24:16.710Z,14.08
2022-11-05T10:26:21.668Z,14.10
2022-11-05T10:28:28.746Z,14.09
2022-11-05T10:30:31.630Z,14.13
2022-11-05T10:32:38.345Z,14.19
2022-11-05T10:34:41.245Z,14.22
2022-11-05T10:36:44.581Z,14.22
2022-11-05T10:38:47.294Z,14.22
2022-11-05T10:40:58.626Z,14.22
2022-11-05T10:43:06.773Z,14.23
2022-11-05T10:45:22.635Z,14.24
2022-11-05T10:47:39.494Z,14.27
2022-11-05T10:49:51.839Z,14.28
2022-11-05T10:51:58.056Z,14.30
2022-11-05T10:54:06.403Z,14.31
2022-11-05T10:56:32.596Z,14.24
2022-11-05T10:58:37.287Z,14.19
2022-11-05T11:00:40.457Z,14.17
2022-11-05T11:02:44.038Z,14.21
2022-11-05T11:04:53.033Z,14.23
2022-11-05T11:06:57.438Z,14.24
2022-11-05T11:09:03.184Z,14.24
2022-11-05T11:11:11.735Z,14.25
2022-11-05T11:13:22.237Z,14.27
2022-11-05T11:15:28.352Z,14.28
2022-11-05T11:17:33.576Z,14.28
2022-11-05T11:19:37.509Z,14.26
2022-11-05T11:21:41.602Z,14.26
2022-11-05T11:23:54.116Z,14.27
2022-11-05T11:26:01.468Z,14.26
2022-11-05T11:28:07.318Z,14.26
2022-11-05T11:30:20.641Z,14.27
2022-11-05T11:32:29.051Z,14.31
2022-11-05T11:34:35.158Z,14.35
2022-11-05T11:36:44.678Z,14.35
2022-11-05T11:38:47.598Z,14.37
2022-11-05T11:40:50.346Z,14.41
2022-11-05T11:42:56.482Z,14.42
2022-11-05T11:45:04.941Z,14.43
2022-11-05T11:47:14.096Z,14.41
2022-11-05T11:49:33.232Z,14.41
2022-11-05T11:51:40.585Z,14.44
2022-11-05T11:53:43.560Z,14.44
2022-11-05T11:56:00.947Z,14.45
2022-11-05T11:58:07.799Z,14.44
2022-11-05T12:00:11.384Z,14.43
2022-11-05T12:02:47.690Z,14.43
2022-11-05T12:05:16.952Z,14.42
2022-11-05T12:07:32.865Z,14.42
2022-11-05T12:09:52.581Z,14.41
2022-11-05T12:12:04.026Z,14.44
2022-11-05T12:14:17.922Z,14.46
2022-11-05T12:16:31.083Z,14.45
2022-11-05T12:18:42.840Z,14.46
2022-11-05T12:21:05.953Z,14.47
2022-11-05T12:23:33.462Z,14.44
2022-11-05T12:25:43.998Z,14.46
2022-11-05T12:28:02.213Z,14.47
2022-11-05T12:30:09.181Z,14.51
2022-11-05T12:32:47.439Z,14.52
2022-11-05T12:34:59.107Z,14.54
2022-11-05T12:37:13.312Z,14.53
2022-11-05T12:39:36.446Z,14.55
2022-11-05T12:41:48.092Z,14.57
2022-11-05T12:44:06.313Z,14.59
2022-11-05T12:46:21.905Z,14.61
2022-11-05T12:48:54.779Z,14.60
2022-11-05T12:51:07.508Z,14.62
2022-11-05T12:53:24.570Z,14.62
2022-11-05T12:55:31.083Z,14.63
2022-11-05T12:57:39.838Z,14.65
2022-11-05T12:59:51.281Z,14.66
2022-11-05T13:02:01.902Z,14.66
2022-11-05T13:04:12.435Z,14.66
2022-11-05T13:06:20.135Z,14.64
2022-11-05T13:08:26.845Z,14.56
2022-11-05T13:10:33.809Z,14.51
2022-11-05T13:12:41.086Z,14.50
2022-11-05T13:14:48.197Z,14.48
2022-11-05T13:16:54.637Z,14.49
2022-11-05T13:19:01.130Z,14.45
2022-11-05T13:21:07.929Z,14.40
2022-11-05T13:23:18.785Z,14.39
2022-11-05T13:25:25.224Z,14.38
2022-11-05T13:27:45.039Z,14.37
2022-11-05T13:29:51.099Z,14.30
2022-11-05T13:31:59.922Z,14.21
2022-11-05T13:34:05.768Z,14.20
2022-11-05T13:36:32.570Z,14.19
2022-11-05T13:38:54.370Z,14.16
2022-11-05T13:41:09.574Z,14.16
2022-11-05T13:43:45.140Z,14.16
2022-11-05T13:46:23.742Z,14.14
2022-11-05T13:48:45.761Z,14.16
2022-11-05T13:51:19.991Z,14.15
2022-11-05T13:53:47.146Z,14.13
2022-11-05T13:56:00.546Z,14.13
2022-11-05T13:58:50.818Z,14.14
2022-11-05T14:01:06.274Z,14.19
2022-11-05T14:03:18.069Z,14.22
2022-11-05T14:05:29.672Z,14.22
2022-11-05T14:07:35.315Z,14.21
2022-11-05T14:09:40.213Z,14.17
2022-11-05T14:11:50.328Z,14.18
2022-11-05T14:13:58.029Z,14.22
2022-11-05T14:16:06.467Z,14.20
2022-11-05T14:18:39.838Z,14.19
2022-11-05T14:20:59.075Z,14.19
2022-11-05T14:23:38.565Z,14.15
2022-11-05T14:25:55.682Z,14.13
2022-11-05T14:28:00.050Z,14.12
2022-11-05T14:30:24.000Z,14.09
2022-11-05T14:32:28.892Z,14.14
2022-11-05T14:34:49.351Z,14.09
2022-11-05T14:37:25.203Z,14.05
2022-11-05T14:39:29.992Z,14.00
2022-11-05T14:41:33.018Z,14.04
2022-11-05T14:43:37.163Z,14.03
2022-11-05T14:45:41.849Z,14.05
2022-11-05T14:47:54.691Z,14.09
2022-11-05T14:50:02.780Z,14.09
2022-11-05T14:52:11.202Z,14.09
2022-11-05T14:54:23.989Z,14.10
2022-11-05T14:56:26.975Z,14.11
2022-11-05T14:58:35.482Z,14.12
2022-11-05T15:00:50.266Z,14.10
2022-11-05T15:02:58.291Z,14.07
2022-11-05T15:05:37.091Z,14.05
2022-11-05T15:07:39.837Z,14.05
2022-11-05T15:09:45.589Z,14.03
2022-11-05T15:12:09.358Z,13.99
2022-11-05T15:14:22.632Z,14.00
2022-11-05T15:16:33.857Z,14.02
2022-11-05T15:18:44.212Z,14.03
2022-11-05T15:20:49.464Z,14.03
2022-11-05T15:22:59.160Z,14.06
2022-11-05T15:25:02.598Z,14.07
2022-11-05T15:27:12.741Z,14.07
2022-11-05T15:29:18.784Z,14.06
2022-11-05T15:31:30.170Z,14.05
2022-11-05T15:33:33.719Z,14.04
2022-11-05T15:35:40.125Z,13.99
2022-11-05T15:37:53.389Z,13.98
2022-11-05T15:39:58.771Z,13.96
2022-11-05T15:42:05.766Z,13.89
2022-11-05T15:44:25.042Z,13.85
2022-11-05T15:46:29.813Z,13.80
2022-11-05T15:48:33.153Z,13.77
2022-11-05T15:50:36.130Z,13.75
2022-11-05T15:52:42.249Z,13.77
2022-11-05T15:54:45.763Z,13.77
2022-11-05T15:56:52.847Z,13.81
2022-11-05T15:58:59.884Z,13.82
2022-11-05T16:01:02.633Z,13.79
2022-11-05T16:03:13.809Z,13.78
2022-11-05T16:05:16.978Z,13.74
2022-11-05T16:07:20.386Z,13.71
2022-11-05T16:09:25.846Z,13.69
2022-11-05T16:11:28.694Z,13.72
2022-11-05T16:13:36.571Z,13.71
2022-11-05T16:15:39.338Z,13.69
2022-11-05T16:17:54.478Z,13.66
2022-11-05T16:19:58.837Z,13.65
2022-11-05T16:22:03.707Z,13.65
2022-11-05T16:24:07.041Z,13.66
2022-11-05T16:28:55.071Z,13.62
2022-11-05T16:31:00.101Z,13.63
2022-11-05T16:33:08.843Z,13.65
2022-11-05T16:35:21.341Z,13.65
2022-11-05T16:37:25.998Z,13.66
2022-11-05T16:39:28.750Z,13.59
2022-11-05T16:41:31.466Z,13.65
2022-11-05T16:43:34.462Z,13.66
2022-11-05T16:45:41.472Z,13.66
2022-11-05T16:47:45.606Z,13.65
2022-11-05T16:49:49.123Z,13.67
2022-11-05T16:51:53.718Z,13.72
2022-11-05T16:53:56.443Z,13.71
2022-11-05T16:55:59.171Z,13.71
2022-11-05T16:58:01.978Z,13.67
2022-11-05T17:00:06.712Z,13.68
2022-11-05T17:02:11.620Z,13.67
2022-11-05T17:04:14.845Z,13.68
2022-11-05T17:06:18.831Z,13.68
2022-11-05T17:08:22.891Z,13.69
2022-11-05T17:10:27.222Z,13.67
2022-11-05T17:12:30.128Z,13.65
2022-11-05T17:14:32.977Z,13.62
2022-11-05T17:16:38.550Z,13.56
2022-11-05T17:18:42.566Z,13.55
2022-11-05T17:20:46.880Z,13.52
2022-11-05T17:22:49.599Z,13.54
2022-11-05T17:24:53.792Z,13.56
2022-11-05T17:26:56.509Z,13.58
2022-11-05T17:28:59.326Z,13.60
2022-11-05T17:31:03.355Z,13.62
2022-11-05T17:33:06.567Z,13.63
2022-11-05T17:35:12.155Z,13.62
2022-11-05T17:37:14.965Z,13.62
2022-11-05T17:39:17.693Z,13.67
2022-11-05T17:41:23.254Z,13.67
2022-11-05T17:43:26.165Z,13.63
2022-11-05T17:45:28.936Z,13.63
2022-11-05T17:47:31.731Z,13.65
2022-11-05T17:49:34.448Z,13.66
2022-11-05T17:51:37.125Z,13.66
2022-11-05T17:53:40.302Z,13.66
2022-11-05T17:55:43.883Z,13.66
2022-11-05T17:57:49.806Z,13.66
2022-11-05T17:59:52.510Z,13.67
2022-11-05T18:01:55.649Z,13.68
2022-11-05T18:04:02.454Z,13.68
2022-11-05T18:06:10.126Z,13.69
2022-11-05T18:08:13.246Z,13.69
2022-11-05T18:10:16.620Z,13.68
2022-11-05T18:12:19.269Z,13.67
2022-11-05T18:14:24.225Z,13.68
2022-11-05T18:16:27.077Z,13.67
2022-11-05T18:18:29.787Z,13.68
2022-11-05T18:20:32.509Z,13.68
2022-11-05T18:22:35.612Z,13.69
2022-11-05T18:24:38.465Z,13.71
2022-11-05T18:26:41.191Z,13.71
2022-11-05T18:28:44.570Z,13.69
2022-11-05T18:30:48.851Z,13.67
2022-11-05T18:32:52.099Z,13.65
2022-11-05T18:45:57.625Z,13.73
2022-11-05T18:48:01.065Z,13.76
2022-11-05T18:50:04.801Z,13.75
2022-11-05T18:52:07.501Z,13.76
2022-11-05T18:54:11.176Z,13.75
2022-11-05T18:56:16.270Z,13.72
2022-11-05T18:58:18.985Z,13.71
2022-11-05T19:00:21.888Z,13.69
2022-11-05T19:02:26.423Z,13.67
2022-11-05T19:04:30.498Z,13.65
2022-11-05T19:06:34.143Z,13.65
2022-11-05T19:08:37.049Z,13.62
2022-11-05T19:10:40.981Z,13.60
2022-11-05T19:12:43.675Z,13.60
2022-11-05T19:14:46.470Z,13.58
2022-11-05T19:16:49.250Z,13.56
2022-11-05T19:18:53.768Z,13.56
2022-11-05T19:20:56.784Z,13.55
2022-11-05T19:22:59.457Z,13.54
2022-11-05T19:25:02.131Z,13.49
2022-11-05T19:27:05.044Z,13.50
2022-11-05T19:29:07.817Z,13.47
2022-11-05T19:31:14.138Z,13.46
2022-11-05T19:33:16.999Z,13.43
2022-11-05T19:35:23.659Z,13.43
2022-11-05T19:37:26.546Z,13.43
2022-11-05T19:39:29.227Z,13.40
2022-11-05T19:41:32.297Z,13.39
2022-11-05T19:43:35.761Z,13.38
2022-11-05T19:45:44.687Z,13.36
2022-11-05T19:47:47.801Z,13.36
2022-11-05T19:49:50.578Z,13.37
2022-11-05T19:51:54.830Z,13.36
2022-11-05T19:53:59.761Z,13.35
2022-11-05T19:56:06.543Z,13.32
2022-11-05T19:58:09.653Z,13.31
2022-11-05T20:00:13.865Z,13.29
2022-11-05T20:02:16.807Z,13.29
2022-11-05T20:04:19.602Z,13.28
2022-11-05T20:06:25.644Z,13.28
2022-11-05T20:08:29.818Z,13.28
2022-11-05T20:10:32.568Z,13.22
2022-11-05T20:12:36.650Z,13.22
2022-11-05T20:14:39.304Z,13.20
2022-11-05T20:16:42.690Z,13.20
2022-11-05T20:18:45.367Z,13.21
2022-11-05T20:20:48.439Z,13.21
2022-11-05T20:22:53.278Z,13.20
2022-11-05T20:24:57.313Z,13.22
2022-11-05T20:27:00.274Z,13.19
2022-11-05T20:29:03.183Z,13.17
2022-11-05T20:31:07.928Z,13.15
2022-11-05T20:33:10.710Z,13.17
2022-11-05T20:35:13.585Z,13.19
2022-11-05T20:37:16.229Z,13.19
2022-11-05T20:39:19.273Z,13.20
2022-11-05T20:41:24.214Z,13.20
2022-11-05T20:43:30.301Z,13.19
2022-11-05T20:45:33.750Z,13.19
2022-11-05T20:47:37.434Z,13.17
2022-11-05T20:49:40.121Z,13.14
2022-11-05T20:51:43.329Z,13.17
2022-11-05T20:53:46.939Z,13.15
2022-11-05T20:55:50.001Z,13.15
2022-11-05T20:57:54.078Z,13.15
2022-11-05T20:59:56.754Z,13.16
2022-11-05T21:01:59.515Z,13.14
2022-11-05T21:04:02.984Z,13.16
2022-11-05T21:06:06.381Z,13.12
2022-11-05T21:08:09.268Z,13.12
2022-11-05T21:10:12.185Z,13.12
2022-11-05T21:12:14.832Z,13.12
2022-11-05T21:14:18.918Z,13.11
2022-11-05T21:16:21.949Z,13.09
2022-11-05T21:18:26.497Z,13.09
2022-11-05T21:20:29.322Z,13.09
2022-11-05T21:22:32.203Z,13.09
2022-11-05T21:24:35.463Z,13.09
2022-11-05T21:26:38.133Z,13.08
2022-11-05T21:28:42.513Z,13.06
2022-11-05T21:30:49.013Z,13.06
2022-11-05T21:32:52.953Z,13.05
2022-11-05T21:34:55.624Z,13.06
2022-11-05T21:36:58.301Z,13.04
2022-11-05T21:39:00.974Z,13.04
2022-11-05T21:41:05.150Z,13.02
2022-11-05T21:43:08.536Z,13.02
2022-11-05T21:45:11.975Z,13.04
2022-11-05T21:47:16.273Z,13.03
2022-11-05T21:49:19.136Z,13.03
2022-11-05T21:51:39.523Z,13.04
2022-11-05T21:54:05.346Z,13.02
2022-11-05T21:56:26.963Z,13.02
2022-11-05T21:58:47.221Z,12.99
2022-11-05T22:00:50.209Z,12.98
2022-11-05T22:02:54.322Z,12.98
2022-11-05T22:05:00.035Z,13.00
2022-11-05T22:07:04.400Z,12.99
2022-11-05T22:09:07.212Z,12.98
2022-11-05T22:11:10.076Z,12.98
2022-11-05T22:13:13.753Z,12.96
2022-11-05T22:15:16.414Z,12.95
2022-11-05T22:17:20.037Z,12.95
2022-11-05T22:19:24.858Z,12.95
2022-11-05T22:21:27.613Z,12.91
